createdAt,value
2019-01-23T00:54:21.632Z,0.80
2019-01-23T00:56:52.059Z,0.90
2019-01-23T00:59:22.502Z,1.00
2019-01-23T01:01:52.920Z,1.00
2019-01-23T01:04:23.298Z,1.10
2019-01-23T01:06:53.617Z,1.10
2019-01-23T01:09:24.018Z,1.10
2019-01-23T01:11:54.360Z,1.10
2019-01-23T01:14:24.738Z,1.10
2019-01-23T01:16:55.047Z,1.10
2019-01-23T01:19:25.467Z,1.10
2019-01-23T01:21:55.857Z,1.10
2019-01-23T01:24:26.310Z,1.10
2019-01-23T01:26:56.750Z,1.10
2019-01-23T01:29:27.182Z,1.10
2019-01-23T01:31:57.622Z,1.10
2019-01-23T01:34:28.107Z,1.10
2019-01-23T01:36:58.565Z,1.10
2019-01-23T01:39:29.005Z,1.10
2019-01-23T01:41:59.418Z,1.10
2019-01-23T01:44:29.884Z,1.10
2019-01-23T01:47:00.300Z,1.10
2019-01-23T01:49:30.730Z,1.10
2019-01-23T01:52:01.193Z,1.10
2019-01-23T01:54:31.708Z,1.00
2019-01-23T01:57:02.173Z,1.00
2019-01-23T01:59:32.629Z,1.00
2019-01-23T02:02:03.067Z,1.00
2019-01-23T02:04:33.522Z,1.00
2019-01-23T02:07:04.100Z,1.00
2019-01-23T02:09:35.585Z,1.00
2019-01-23T02:12:06.256Z,1.00
2019-01-23T02:14:36.701Z,1.00
2019-01-23T02:17:07.116Z,0.90
2019-01-23T02:19:37.573Z,0.90
2019-01-23T02:22:07.979Z,0.90
2019-01-23T02:24:38.423Z,0.90
2019-01-23T02:27:08.841Z,0.90
2019-01-23T02:29:39.277Z,0.90
2019-01-23T02:32:09.691Z,0.90
2019-01-23T02:34:40.135Z,0.90
2019-01-23T02:37:10.541Z,0.80
2019-01-23T02:39:40.999Z,0.80
2019-01-23T02:42:11.465Z,0.80
2019-01-23T02:44:41.914Z,0.80
2019-01-23T02:47:12.337Z,0.80
2019-01-23T02:49:42.791Z,0.80
2019-01-23T02:52:13.196Z,0.80
2019-01-23T02:54:43.685Z,0.80
2019-01-23T02:57:14.117Z,0.80
2019-01-23T02:59:44.552Z,0.80
2019-01-23T03:02:14.977Z,0.80
2019-01-23T03:04:45.392Z,0.80
2019-01-23T03:07:15.807Z,0.80
2019-01-23T03:09:46.231Z,0.70
2019-01-23T03:12:16.684Z,0.70
2019-01-23T03:14:47.108Z,0.70
2019-01-23T03:17:17.549Z,0.70
2019-01-23T03:19:48.051Z,0.70
2019-01-23T03:22:18.475Z,0.70
2019-01-23T03:24:49.009Z,0.70
2019-01-23T03:27:19.439Z,0.70
2019-01-23T03:29:49.911Z,0.60
2019-01-23T03:32:20.431Z,0.60
2019-01-23T03:34:50.861Z,0.60
2019-01-23T03:37:21.342Z,0.60
2019-01-23T03:39:51.765Z,0.60
2019-01-23T03:42:22.201Z,0.60
2019-01-23T03:44:52.631Z,0.60
2019-01-23T03:47:23.090Z,0.60
2019-01-23T03:49:53.497Z,0.50
2019-01-23T03:52:23.937Z,0.50
2019-01-23T03:54:54.550Z,0.50
2019-01-23T03:57:25.062Z,0.50
2019-01-23T03:59:55.499Z,0.50
2019-01-23T04:02:25.949Z,0.50
2019-01-23T04:04:56.358Z,0.50
2019-01-23T04:07:26.803Z,0.50
2019-01-23T04:09:57.225Z,0.50
2019-01-23T04:12:27.660Z,0.50
2019-01-23T04:14:58.100Z,0.50
2019-01-23T04:17:28.800Z,0.50
2019-01-23T04:19:59.241Z,0.50
2019-01-23T04:22:29.701Z,0.40
2019-01-23T04:25:00.235Z,0.40
2019-01-23T04:27:30.657Z,0.40
2019-01-23T04:30:01.164Z,0.40
2019-01-23T04:32:31.606Z,0.40
2019-01-23T04:35:02.021Z,0.40
2019-01-23T04:37:32.552Z,0.40
2019-01-23T04:40:02.982Z,0.30
2019-01-23T04:42:33.463Z,0.40
2019-01-23T04:45:04.829Z,0.30
2019-01-23T04:47:35.323Z,0.30
2019-01-23T04:50:07.509Z,0.30
2019-01-23T04:52:56.884Z,0.30
2019-01-23T04:55:27.304Z,0.30
2019-01-23T04:57:57.774Z,0.30
2019-01-23T05:00:29.127Z,0.30
2019-01-23T05:02:59.544Z,0.30
2019-01-23T05:05:29.982Z,0.30
2019-01-23T05:08:00.491Z,0.30
2019-01-23T05:10:30.877Z,0.20
2019-01-23T05:13:01.373Z,0.30
2019-01-23T05:15:31.824Z,0.20
2019-01-23T05:18:02.258Z,0.20
2019-01-23T05:20:32.678Z,0.20
2019-01-23T05:23:03.161Z,0.20
2019-01-23T05:25:33.603Z,0.20
2019-01-23T05:28:04.236Z,0.20
2019-01-23T05:30:34.652Z,0.20
2019-01-23T05:33:05.113Z,0.20
2019-01-23T05:35:35.682Z,0.10
2019-01-23T05:38:06.162Z,0.10
2019-01-23T05:40:36.620Z,0.10
2019-01-23T05:43:07.151Z,0.10
2019-01-23T05:45:37.575Z,0.10
2019-01-23T05:48:08.024Z,0.10
2019-01-23T05:50:38.474Z,0.10
2019-01-23T05:53:08.934Z,0.10
2019-01-23T05:55:39.327Z,0.00
2019-01-23T05:58:10.241Z,0.10
2019-01-23T06:00:40.686Z,0.10
2019-01-23T06:03:11.143Z,0.00
2019-01-23T06:05:41.561Z,0.00
2019-01-23T06:08:12.018Z,0.10
2019-01-23T06:10:42.480Z,0.00
2019-01-23T06:13:12.968Z,0.00
2019-01-23T06:15:43.704Z,0.00
2019-01-23T06:18:14.147Z,0.00
2019-01-23T06:20:44.619Z,0.00
2019-01-23T06:23:15.152Z,0.00
2019-01-23T06:25:45.584Z,0.00
2019-01-23T06:28:16.002Z,0.00
2019-01-23T06:30:46.513Z,0.00
2019-01-23T06:33:17.016Z,0.00
2019-01-23T06:35:47.811Z,0.00
2019-01-23T06:38:18.243Z,0.00
2019-01-23T06:40:48.693Z,0.00
2019-01-23T06:43:19.106Z,0.00
2019-01-23T06:45:49.629Z,-0.10
2019-01-23T06:48:20.232Z,0.00
2019-01-23T06:50:50.732Z,-0.10
2019-01-23T06:53:21.165Z,-0.10
2019-01-23T06:55:51.649Z,-0.10
2019-01-23T06:58:22.119Z,-0.10
2019-01-23T07:00:52.605Z,-0.10
2019-01-23T07:03:23.015Z,-0.10
2019-01-23T07:05:53.478Z,-0.20
2019-01-23T07:08:24.002Z,-0.20
2019-01-23T07:10:54.458Z,-0.20
2019-01-23T07:13:24.913Z,-0.20
2019-01-23T07:15:55.372Z,-0.20
2019-01-23T07:18:25.797Z,-0.20
2019-01-23T07:20:56.420Z,-0.20
2019-01-23T07:23:26.847Z,-0.20
2019-01-23T07:25:57.351Z,-0.30
2019-01-23T07:28:27.823Z,-0.30
2019-01-23T07:30:58.259Z,-0.30
2019-01-23T07:33:28.734Z,-0.30
2019-01-23T07:35:59.178Z,-0.20
2019-01-23T07:38:29.678Z,-0.20
2019-01-23T07:41:00.128Z,-0.20
2019-01-23T07:43:30.583Z,-0.20
2019-01-23T07:46:01.006Z,-0.20
2019-01-23T07:48:31.440Z,-0.20
2019-01-23T07:51:01.901Z,-0.20
2019-01-23T07:53:32.321Z,-0.20
2019-01-23T07:56:02.841Z,-0.20
2019-01-23T07:58:33.238Z,-0.10
2019-01-23T08:01:03.708Z,-0.10
2019-01-23T08:03:34.126Z,-0.10
2019-01-23T08:06:04.598Z,0.00
2019-01-23T08:08:35.033Z,0.00
2019-01-23T08:11:05.487Z,0.00
2019-01-23T08:13:35.946Z,0.10
2019-01-23T08:16:06.427Z,0.10
2019-01-23T08:18:36.875Z,0.20
2019-01-23T08:21:07.330Z,0.20
2019-01-23T08:23:37.768Z,0.20
2019-01-23T08:26:08.223Z,0.20
2019-01-23T08:28:38.756Z,0.30
2019-01-23T08:31:09.254Z,0.30
2019-01-23T08:33:39.663Z,0.30
2019-01-23T08:36:10.153Z,0.30
2019-01-23T08:38:40.631Z,0.40
2019-01-23T08:41:11.057Z,0.40
2019-01-23T08:43:41.501Z,0.40
2019-01-23T08:46:11.988Z,0.50
2019-01-23T08:48:42.431Z,0.50
2019-01-23T08:51:12.870Z,0.50
2019-01-23T08:53:43.352Z,0.50
2019-01-23T08:56:13.798Z,0.60
2019-01-23T08:58:44.236Z,0.60
2019-01-23T09:01:14.685Z,0.60
2019-01-23T09:03:45.103Z,0.60
2019-01-23T09:06:15.612Z,0.60
2019-01-23T09:08:46.154Z,0.70
2019-01-23T09:11:16.617Z,0.70
2019-01-23T09:13:47.036Z,0.70
2019-01-23T09:16:17.553Z,0.70
2019-01-23T09:18:47.975Z,0.70
2019-01-23T09:21:18.458Z,0.70
2019-01-23T09:23:48.898Z,0.70
2019-01-23T09:26:19.352Z,0.70
2019-01-23T09:28:49.791Z,0.70
2019-01-23T09:32:05.328Z,0.70
2019-01-23T09:35:11.611Z,0.70
2019-01-23T09:38:49.363Z,0.70
2019-01-23T09:41:52.747Z,0.70
2019-01-23T09:45:49.640Z,0.70
2019-01-23T09:49:17.007Z,0.70
2019-01-23T09:53:11.986Z,0.60
2019-01-23T09:55:42.527Z,0.70
2019-01-23T09:58:13.283Z,0.70
2019-01-23T10:00:43.765Z,0.80
2019-01-23T10:03:14.174Z,0.80
2019-01-23T10:05:44.641Z,0.90
2019-01-23T10:08:15.097Z,0.90
2019-01-23T10:10:45.535Z,1.00
2019-01-23T10:13:15.988Z,1.00
2019-01-23T10:16:04.429Z,1.00
2019-01-23T10:18:34.850Z,1.00
2019-01-23T10:21:05.299Z,1.10
2019-01-23T10:23:35.695Z,1.10
2019-01-23T10:26:06.383Z,1.10
2019-01-23T10:28:36.815Z,1.20
2019-01-23T10:31:07.264Z,1.20
2019-01-23T10:33:37.686Z,1.30
2019-01-23T10:36:08.596Z,1.30
2019-01-23T10:38:39.036Z,1.40
2019-01-23T10:41:09.555Z,1.50
2019-01-23T10:43:39.952Z,1.50
2019-01-23T10:46:10.391Z,1.60
2019-01-23T10:48:40.875Z,1.60
2019-01-23T10:51:11.364Z,1.70
2019-01-23T10:53:41.908Z,1.70
2019-01-23T10:56:12.393Z,1.80
2019-01-23T10:58:42.817Z,1.80
2019-01-23T11:01:13.561Z,1.90
2019-01-23T11:03:43.994Z,1.90
2019-01-23T11:06:14.452Z,1.90
2019-01-23T11:08:44.884Z,1.90
2019-01-23T11:11:15.366Z,2.00
2019-01-23T11:13:45.807Z,2.00
2019-01-23T11:16:16.255Z,2.00
2019-01-23T11:18:46.667Z,2.10
2019-01-23T11:21:17.734Z,2.10
2019-01-23T11:23:48.269Z,2.10
2019-01-23T11:26:19.222Z,2.10
2019-01-23T11:28:49.791Z,2.20
2019-01-23T11:31:20.668Z,2.20
2019-01-23T11:33:51.125Z,2.20
2019-01-23T11:36:21.571Z,2.30
2019-01-23T11:38:52.648Z,2.30
2019-01-23T11:41:23.299Z,2.30
2019-01-23T11:43:53.749Z,2.40
2019-01-23T11:46:24.231Z,2.30
2019-01-23T11:48:54.714Z,2.30
2019-01-23T11:51:25.163Z,2.30
2019-01-23T11:53:55.568Z,2.30
2019-01-23T11:56:26.032Z,2.30
2019-01-23T11:58:56.515Z,2.30
2019-01-23T12:01:27.611Z,2.30
2019-01-23T12:03:58.363Z,2.30
2019-01-23T12:06:28.617Z,2.30
2019-01-23T12:08:59.141Z,2.30
2019-01-23T12:11:29.624Z,2.40
2019-01-23T12:14:00.079Z,2.40
2019-01-23T12:16:30.660Z,2.40
2019-01-23T12:19:01.408Z,2.40
2019-01-23T12:21:31.969Z,2.40
2019-01-23T12:24:02.463Z,2.40
2019-01-23T12:26:32.996Z,2.40
2019-01-23T12:29:03.460Z,2.40
2019-01-23T12:31:35.195Z,2.40
2019-01-23T12:34:06.119Z,2.40
2019-01-23T12:36:36.612Z,2.40
2019-01-23T12:39:09.480Z,2.40
2019-01-23T12:41:39.952Z,2.50
2019-01-23T12:44:10.700Z,2.50
2019-01-23T12:46:41.232Z,2.50
2019-01-23T12:49:11.668Z,2.60
2019-01-23T12:51:42.105Z,2.60
2019-01-23T12:54:12.546Z,2.70
2019-01-23T12:56:43.047Z,2.70
2019-01-23T12:59:13.536Z,2.70
2019-01-23T13:01:44.076Z,2.80
2019-01-23T13:04:14.553Z,2.70
2019-01-23T13:06:45.083Z,2.70
2019-01-23T13:09:15.595Z,2.70
2019-01-23T13:11:46.071Z,2.70
2019-01-23T13:14:16.628Z,2.70
2019-01-23T13:16:47.113Z,2.70
2019-01-23T13:19:17.599Z,2.70
2019-01-23T13:21:48.126Z,2.70
2019-01-23T13:24:18.582Z,2.70
2019-01-23T13:26:49.066Z,2.70
2019-01-23T13:29:19.530Z,2.70
2019-01-23T13:31:50.043Z,2.70
2019-01-23T13:34:20.533Z,2.70
2019-01-23T13:36:50.967Z,2.80
2019-01-23T13:39:21.742Z,2.80
2019-01-23T13:41:52.233Z,2.80
2019-01-23T13:44:22.678Z,2.80
2019-01-23T13:46:53.213Z,2.80
2019-01-23T13:49:23.674Z,2.90
2019-01-23T13:51:54.249Z,2.90
2019-01-23T13:54:24.781Z,2.90
2019-01-23T13:56:55.259Z,3.00
2019-01-23T13:59:25.762Z,3.00
2019-01-23T14:01:56.648Z,3.10
2019-01-23T14:04:27.190Z,3.10
2019-01-23T14:06:57.742Z,3.10
2019-01-23T14:09:28.213Z,3.00
2019-01-23T14:11:58.750Z,3.00
2019-01-23T14:14:29.339Z,2.90
2019-01-23T14:16:59.940Z,2.90
2019-01-23T14:19:30.384Z,2.90
2019-01-23T14:22:00.859Z,3.00
2019-01-23T14:24:31.293Z,2.90
2019-01-23T14:27:01.812Z,2.90
2019-01-23T14:29:32.204Z,2.90
2019-01-23T14:32:03.570Z,2.80
2019-01-23T14:34:34.109Z,2.80
2019-01-23T14:37:04.742Z,2.70
2019-01-23T14:39:35.172Z,2.70
2019-01-23T14:42:06.682Z,2.60
2019-01-23T14:44:37.168Z,2.60
2019-01-23T14:47:07.725Z,2.60
2019-01-23T14:49:38.218Z,2.50
2019-01-23T14:52:08.899Z,2.40
2019-01-23T14:54:39.397Z,2.40
2019-01-23T14:57:09.875Z,2.40
2019-01-23T14:59:40.301Z,2.40
2019-01-23T15:02:10.754Z,2.40
2019-01-23T15:04:41.176Z,2.30
2019-01-23T15:07:11.658Z,2.20
2019-01-23T15:09:42.098Z,2.10
2019-01-23T15:12:12.546Z,1.90
2019-01-23T15:14:43.011Z,1.80
2019-01-23T15:17:13.477Z,1.90
2019-01-23T15:19:43.885Z,1.80
2019-01-23T15:22:14.407Z,1.80
2019-01-23T15:24:44.846Z,1.80
2019-01-23T15:27:15.341Z,1.80
2019-01-23T15:29:45.797Z,1.70
2019-01-23T15:32:17.480Z,1.60
2019-01-23T15:34:48.096Z,1.60
2019-01-23T15:37:18.552Z,1.70
2019-01-23T15:39:49.297Z,1.50
2019-01-23T15:42:19.800Z,1.50
2019-01-23T15:44:50.237Z,1.40
2019-01-23T15:47:21.293Z,1.30
2019-01-23T15:52:58.969Z,1.20
2019-01-23T15:55:30.455Z,1.20
2019-01-23T15:58:01.244Z,1.20
2019-01-23T16:00:33.716Z,1.20
2019-01-23T16:05:52.480Z,1.20
2019-01-23T16:11:08.636Z,1.20
2019-01-23T16:13:42.379Z,1.10
2019-01-23T16:16:11.534Z,1.10
2019-01-23T16:18:42.087Z,1.10
2019-01-23T16:21:12.593Z,1.20
2019-01-23T16:23:43.082Z,1.10
2019-01-23T16:26:13.553Z,1.10
2019-01-23T16:28:44.038Z,1.10
2019-01-23T16:31:14.506Z,1.10
2019-01-23T16:33:45.013Z,1.10
2019-01-23T16:36:15.508Z,1.10
2019-01-23T16:38:46.118Z,1.10
2019-01-23T16:41:16.707Z,1.10
2019-01-23T16:43:47.339Z,1.10
2019-01-23T16:46:17.893Z,1.00
2019-01-23T16:48:48.486Z,0.90
2019-01-23T16:51:18.946Z,0.90
2019-01-23T16:53:49.500Z,0.90
2019-01-23T16:56:20.032Z,0.90
2019-01-23T16:58:50.624Z,0.90
2019-01-23T17:01:21.433Z,0.90
2019-01-23T17:03:51.999Z,0.80
2019-01-23T17:06:22.500Z,0.70
2019-01-23T17:08:53.135Z,0.70
2019-01-23T17:11:23.642Z,0.60
2019-01-23T17:13:54.109Z,0.60
2019-01-23T17:16:24.590Z,0.50
2019-01-23T17:18:55.170Z,0.50
2019-01-23T17:21:25.654Z,0.40
2019-01-23T17:23:56.149Z,0.50
2019-01-23T17:26:26.695Z,0.50
2019-01-23T17:28:57.144Z,0.50
2019-01-23T17:31:27.600Z,0.50
2019-01-23T17:33:58.073Z,0.40
2019-01-23T17:36:28.660Z,0.30
2019-01-23T17:38:59.592Z,0.20
2019-01-23T17:41:30.210Z,0.10
2019-01-23T17:44:02.244Z,0.20
2019-01-23T17:46:32.808Z,0.20
2019-01-23T17:49:03.346Z,0.20
2019-01-23T17:51:33.772Z,0.10
2019-01-23T17:54:04.443Z,0.10
2019-01-23T17:56:34.940Z,0.10
2019-01-23T17:59:06.269Z,0.20
2019-01-23T18:01:36.703Z,0.10
2019-01-23T18:04:07.244Z,0.10
2019-01-23T18:06:37.725Z,0.00
2019-01-23T18:09:11.630Z,0.00
2019-01-23T18:11:42.391Z,0.10
2019-01-23T18:14:13.014Z,0.20
2019-01-23T18:16:43.573Z,0.20
2019-01-23T18:19:14.001Z,0.20
2019-01-23T18:21:44.577Z,0.10
2019-01-23T18:24:15.085Z,0.10
2019-01-23T18:26:45.629Z,0.00
2019-01-23T18:29:16.216Z,0.00
2019-01-23T18:32:18.261Z,0.00
2019-01-23T18:35:37.768Z,0.00
2019-01-23T18:38:30.165Z,0.00
2019-01-23T18:41:57.228Z,0.00
2019-01-23T18:45:31.708Z,0.10
2019-01-23T18:49:04.864Z,0.00
2019-01-23T18:51:50.209Z,0.00
2019-01-23T18:54:20.827Z,0.10
2019-01-23T18:56:51.445Z,0.10
2019-01-23T18:59:22.032Z,0.10
2019-01-23T19:01:52.505Z,0.10
2019-01-23T19:04:23.144Z,0.10
2019-01-23T19:06:53.705Z,0.20
2019-01-23T19:09:24.346Z,0.30
2019-01-23T19:11:54.965Z,0.40
2019-01-23T19:14:25.535Z,0.40
2019-01-23T19:16:56.070Z,0.40
2019-01-23T19:19:26.540Z,0.40
2019-01-23T19:21:58.626Z,0.40
2019-01-23T19:24:29.068Z,0.30
2019-01-23T19:26:59.563Z,0.30
2019-01-23T19:29:30.187Z,0.40
2019-01-23T19:32:00.647Z,0.30
2019-01-23T19:34:31.192Z,0.30
2019-01-23T19:37:01.650Z,0.40
2019-01-23T19:39:32.120Z,0.40
2019-01-23T19:42:02.719Z,0.40
2019-01-23T19:44:33.168Z,0.50
2019-01-23T19:47:03.611Z,0.40
2019-01-23T19:49:34.256Z,0.50
2019-01-23T19:52:04.911Z,0.50
2019-01-23T19:54:35.366Z,0.50
2019-01-23T19:57:06.185Z,0.50
2019-01-23T19:59:36.714Z,0.50
2019-01-23T20:02:07.442Z,0.50
2019-01-23T20:04:37.939Z,0.60
2019-01-23T20:07:08.427Z,0.60
2019-01-23T20:09:38.872Z,0.70
2019-01-23T20:12:15.449Z,0.70
2019-01-23T20:14:41.575Z,0.70
2019-01-23T20:17:12.033Z,0.80
2019-01-23T20:19:42.544Z,0.80
2019-01-23T20:22:13.160Z,0.80
2019-01-23T20:24:43.746Z,0.80
2019-01-23T20:27:14.231Z,0.90
2019-01-23T20:29:44.734Z,0.90
2019-01-23T20:32:15.222Z,0.90
2019-01-23T20:34:45.831Z,0.90
2019-01-23T20:37:16.299Z,0.90
2019-01-23T20:39:46.877Z,1.00
2019-01-23T20:42:17.394Z,1.00
2019-01-23T20:44:48.264Z,1.00
2019-01-23T20:47:19.209Z,1.00
2019-01-23T20:49:49.721Z,1.00
2019-01-23T20:52:20.257Z,1.00
2019-01-23T20:54:50.813Z,1.00
2019-01-23T20:57:21.622Z,1.00
2019-01-23T20:59:52.126Z,1.00
2019-01-23T21:02:22.713Z,1.10
2019-01-23T21:04:53.242Z,1.10
2019-01-23T21:07:23.821Z,1.10
2019-01-23T21:09:54.318Z,1.10
2019-01-23T21:12:24.853Z,1.10
2019-01-23T21:14:55.360Z,1.10
2019-01-23T21:17:26.045Z,1.10
2019-01-23T21:19:56.500Z,1.10
2019-01-23T21:22:30.254Z,1.10
2019-01-23T21:25:00.689Z,1.20
2019-01-23T21:27:33.821Z,1.20
2019-01-23T21:30:05.460Z,1.20
2019-01-23T21:32:36.188Z,1.20
2019-01-23T21:35:07.616Z,1.20
2019-01-23T21:37:38.063Z,1.20
2019-01-23T21:40:14.204Z,1.20
2019-01-23T21:42:44.769Z,1.20
2019-01-23T21:45:15.567Z,1.30
2019-01-23T21:47:46.204Z,1.30
2019-01-23T21:50:18.958Z,1.40
2019-01-23T21:52:49.442Z,1.40
2019-01-23T21:55:22.825Z,1.40
2019-01-23T21:57:53.740Z,1.40
2019-01-23T22:00:49.017Z,1.50
2019-01-23T22:03:19.521Z,1.50
2019-01-23T22:05:50.141Z,1.50
2019-01-23T22:08:20.719Z,1.50
2019-01-23T22:10:51.257Z,1.50
2019-01-23T22:13:22.038Z,1.50
2019-01-23T22:15:52.542Z,1.50
2019-01-23T22:18:23.122Z,1.60
2019-01-23T22:20:53.751Z,1.60
2019-01-23T22:23:24.290Z,1.60
2019-01-23T22:25:54.853Z,1.60
2019-01-23T22:28:25.485Z,1.60
2019-01-23T22:30:56.043Z,1.60
2019-01-23T22:33:26.638Z,1.70
2019-01-23T22:35:57.111Z,1.60
2019-01-23T22:38:27.636Z,1.70
2019-01-23T22:40:58.156Z,1.70
2019-01-23T22:43:28.753Z,1.70
2019-01-23T22:45:59.911Z,1.70
2019-01-23T22:48:31.738Z,1.60
2019-01-23T22:51:02.392Z,1.60
2019-01-23T22:53:33.031Z,1.70
2019-01-23T22:56:03.534Z,1.60
2019-01-23T22:58:34.074Z,1.60
2019-01-23T23:01:17.899Z,1.60
2019-01-23T23:03:48.615Z,1.60
2019-01-23T23:06:19.128Z,1.60
2019-01-23T23:08:50.603Z,1.60
2019-01-23T23:11:21.148Z,1.60
2019-01-23T23:13:51.643Z,1.60
2019-01-23T23:16:22.254Z,1.60
2019-01-23T23:18:52.810Z,1.60
2019-01-23T23:21:23.349Z,1.50
2019-01-23T23:23:53.809Z,1.50
2019-01-23T23:26:24.224Z,1.40
2019-01-23T23:28:54.746Z,1.50
2019-01-23T23:31:25.194Z,1.40
2019-01-23T23:33:55.780Z,1.40
2019-01-23T23:36:26.216Z,1.40
2019-01-23T23:38:56.697Z,1.40
2019-01-23T23:41:27.132Z,1.40
2019-01-23T23:43:57.561Z,1.40
2019-01-23T23:47:16.437Z,1.40
2019-01-23T23:49:46.876Z,1.30
2019-01-23T23:52:17.316Z,1.30
2019-01-23T23:54:47.721Z,1.40
2019-01-23T23:57:18.240Z,1.40
2019-01-23T23:59:48.717Z,1.40
